sensor_id;sensor_type;location;lat;lon;timestamp;temperature;humidity
20915;DHT22;10617;52.032;5.298;2024-03-17T00:03:43;6.10;99.90
20915;DHT22;10617;52.032;5.298;2024-03-17T00:07:44;6.10;99.90
20915;DHT22;10617;52.032;5.298;2024-03-17T00:11:45;6.10;99.90
20915;DHT22;10617;52.032;5.298;2024-03-17T00:15:46;6.10;99.90
20915;DHT22;10617;52.032;5.298;2024-03-17T00:19:47;6.10;99.90
20915;DHT22;10617;52.032;5.298;2024-03-17T00:23:48;6.10;99.90
20915;DHT22;10617;52.032;5.298;2024-03-17T00:27:52;6.10;99.90
20915;DHT22;10617;52.032;5.298;2024-03-17T00:31:56;6.10;99.90
20915;DHT22;10617;52.032;5.298;2024-03-17T00:35:59;6.10;99.90
20915;DHT22;10617;52.032;5.298;2024-03-17T00:40:00;6.10;99.90
20915;DHT22;10617;52.032;5.298;2024-03-17T00:44:02;6.10;99.90
20915;DHT22;10617;52.032;5.298;2024-03-17T00:48:03;6.10;99.90
20915;DHT22;10617;52.032;5.298;2024-03-17T00:52:05;6.10;99.90
20915;DHT22;10617;52.032;5.298;2024-03-17T00:56:06;6.10;99.90
20915;DHT22;10617;52.032;5.298;2024-03-17T01:00:07;6.20;99.90
20915;DHT22;10617;52.032;5.298;2024-03-17T01:04:12;6.20;99.90
20915;DHT22;10617;52.032;5.298;2024-03-17T01:08:13;6.20;99.90
20915;DHT22;10617;52.032;5.298;2024-03-17T01:12:14;6.10;99.90
20915;DHT22;10617;52.032;5.298;2024-03-17T01:16:15;6.10;99.90
20915;DHT22;10617;52.032;5.298;2024-03-17T01:20:16;6.10;99.90
20915;DHT22;10617;52.032;5.298;2024-03-17T01:24:17;6.10;99.90
20915;DHT22;10617;52.032;5.298;2024-03-17T01:28:18;6.20;99.90
20915;DHT22;10617;52.032;5.298;2024-03-17T01:32:19;6.20;99.90
20915;DHT22;10617;52.032;5.298;2024-03-17T01:36:20;6.20;99.90
20915;DHT22;10617;52.032;5.298;2024-03-17T01:40:21;6.10;99.90
20915;DHT22;10617;52.032;5.298;2024-03-17T01:44:26;6.10;99.90
20915;DHT22;10617;52.032;5.298;2024-03-17T01:48:28;6.10;99.90
20915;DHT22;10617;52.032;5.298;2024-03-17T01:52:28;6.10;99.90
20915;DHT22;10617;52.032;5.298;2024-03-17T01:56:29;6.10;99.90
20915;DHT22;10617;52.032;5.298;2024-03-17T02:00:30;6.10;99.90
20915;DHT22;10617;52.032;5.298;2024-03-17T02:04:32;6.00;99.90
20915;DHT22;10617;52.032;5.298;2024-03-17T02:08:49;6.10;99.90
20915;DHT22;10617;52.032;5.298;2024-03-17T02:12:50;6.00;99.90
20915;DHT22;10617;52.032;5.298;2024-03-17T02:16:51;6.10;99.90
20915;DHT22;10617;52.032;5.298;2024-03-17T02:20:52;6.10;99.90
20915;DHT22;10617;52.032;5.298;2024-03-17T02:24:58;6.10;99.90
20915;DHT22;10617;52.032;5.298;2024-03-17T02:28:59;6.20;99.90
20915;DHT22;10617;52.032;5.298;2024-03-17T02:32:59;6.20;99.90
20915;DHT22;10617;52.032;5.298;2024-03-17T02:37:01;6.20;99.90
20915;DHT22;10617;52.032;5.298;2024-03-17T02:41:03;6.30;99.90
20915;DHT22;10617;52.032;5.298;2024-03-17T02:50:08;6.40;99.90
20915;DHT22;10617;52.032;5.298;2024-03-17T02:54:12;6.40;99.90
20915;DHT22;10617;52.032;5.298;2024-03-17T02:58:13;6.50;99.90
20915;DHT22;10617;52.032;5.298;2024-03-17T03:02:14;6.50;99.90
20915;DHT22;10617;52.032;5.298;2024-03-17T03:06:15;6.60;99.90
20915;DHT22;10617;52.032;5.298;2024-03-17T03:10:16;6.60;99.90
20915;DHT22;10617;52.032;5.298;2024-03-17T03:14:17;6.60;99.90
20915;DHT22;10617;52.032;5.298;2024-03-17T03:18:17;6.60;99.90
20915;DHT22;10617;52.032;5.298;2024-03-17T03:22:28;6.70;99.90
20915;DHT22;10617;52.032;5.298;2024-03-17T03:26:29;6.70;99.90
20915;DHT22;10617;52.032;5.298;2024-03-17T03:30:30;6.70;99.90
20915;DHT22;10617;52.032;5.298;2024-03-17T03:34:31;6.80;99.90
20915;DHT22;10617;52.032;5.298;2024-03-17T03:38:31;6.80;99.90
20915;DHT22;10617;52.032;5.298;2024-03-17T03:42:32;6.80;99.90
20915;DHT22;10617;52.032;5.298;2024-03-17T03:51:36;6.80;99.90
20915;DHT22;10617;52.032;5.298;2024-03-17T03:55:37;6.80;99.90
20915;DHT22;10617;52.032;5.298;2024-03-17T03:59:38;6.80;99.90
20915;DHT22;10617;52.032;5.298;2024-03-17T04:03:39;6.80;99.90
20915;DHT22;10617;52.032;5.298;2024-03-17T04:07:40;6.80;99.90
20915;DHT22;10617;52.032;5.298;2024-03-17T04:11:43;6.80;99.90
20915;DHT22;10617;52.032;5.298;2024-03-17T04:15:44;6.80;99.90
20915;DHT22;10617;52.032;5.298;2024-03-17T04:19:45;6.80;99.90
20915;DHT22;10617;52.032;5.298;2024-03-17T04:23:46;6.80;99.90
20915;DHT22;10617;52.032;5.298;2024-03-17T04:27:47;6.80;99.90
20915;DHT22;10617;52.032;5.298;2024-03-17T04:31:47;6.80;99.90
20915;DHT22;10617;52.032;5.298;2024-03-17T04:35:49;6.80;99.90
20915;DHT22;10617;52.032;5.298;2024-03-17T04:39:50;6.80;99.90
20915;DHT22;10617;52.032;5.298;2024-03-17T04:43:51;6.80;99.90
20915;DHT22;10617;52.032;5.298;2024-03-17T04:47:53;6.80;99.90
20915;DHT22;10617;52.032;5.298;2024-03-17T04:51:54;6.80;99.90
20915;DHT22;10617;52.032;5.298;2024-03-17T04:56:02;6.90;99.90
20915;DHT22;10617;52.032;5.298;2024-03-17T05:00:03;6.80;99.90
20915;DHT22;10617;52.032;5.298;2024-03-17T05:04:08;6.90;99.90
20915;DHT22;10617;52.032;5.298;2024-03-17T05:08:08;6.90;99.90
20915;DHT22;10617;52.032;5.298;2024-03-17T05:12:09;6.90;99.90
20915;DHT22;10617;52.032;5.298;2024-03-17T05:16:10;6.90;99.90
20915;DHT22;10617;52.032;5.298;2024-03-17T05:20:11;6.90;99.90
20915;DHT22;10617;52.032;5.298;2024-03-17T05:24:13;6.90;99.90
20915;DHT22;10617;52.032;5.298;2024-03-17T05:28:14;6.90;99.90
20915;DHT22;10617;52.032;5.298;2024-03-17T05:32:16;6.80;99.90
20915;DHT22;10617;52.032;5.298;2024-03-17T05:36:17;6.80;99.90
20915;DHT22;10617;52.032;5.298;2024-03-17T05:40:20;6.80;99.90
20915;DHT22;10617;52.032;5.298;2024-03-17T05:44:21;6.80;99.90
20915;DHT22;10617;52.032;5.298;2024-03-17T05:48:22;6.80;99.90
20915;DHT22;10617;52.032;5.298;2024-03-17T05:52:23;6.70;99.90
20915;DHT22;10617;52.032;5.298;2024-03-17T05:56:24;6.70;99.90
20915;DHT22;10617;52.032;5.298;2024-03-17T06:00:24;6.70;99.90
20915;DHT22;10617;52.032;5.298;2024-03-17T06:04:25;6.70;99.90
20915;DHT22;10617;52.032;5.298;2024-03-17T06:08:26;6.70;99.90
20915;DHT22;10617;52.032;5.298;2024-03-17T06:12:27;6.70;99.90
20915;DHT22;10617;52.032;5.298;2024-03-17T06:16:28;6.70;99.90
20915;DHT22;10617;52.032;5.298;2024-03-17T06:20:29;6.80;99.90
20915;DHT22;10617;52.032;5.298;2024-03-17T06:24:30;6.80;99.90
20915;DHT22;10617;52.032;5.298;2024-03-17T06:28:30;6.80;99.90
20915;DHT22;10617;52.032;5.298;2024-03-17T06:32:32;6.90;99.90
20915;DHT22;10617;52.032;5.298;2024-03-17T06:36:33;7.00;99.90
20915;DHT22;10617;52.032;5.298;2024-03-17T06:40:34;7.10;99.90
20915;DHT22;10617;52.032;5.298;2024-03-17T06:44:34;7.20;99.90
20915;DHT22;10617;52.032;5.298;2024-03-17T06:48:36;7.20;99.90
20915;DHT22;10617;52.032;5.298;2024-03-17T06:52:37;7.30;99.90
20915;DHT22;10617;52.032;5.298;2024-03-17T06:56:38;7.40;99.90
20915;DHT22;10617;52.032;5.298;2024-03-17T07:00:39;7.50;99.90
20915;DHT22;10617;52.032;5.298;2024-03-17T07:04:40;7.60;99.90
20915;DHT22;10617;52.032;5.298;2024-03-17T07:08:41;7.60;99.90
20915;DHT22;10617;52.032;5.298;2024-03-17T07:12:43;7.70;99.90
20915;DHT22;10617;52.032;5.298;2024-03-17T07:16:43;7.70;99.90
20915;DHT22;10617;52.032;5.298;2024-03-17T07:20:44;7.80;99.90
20915;DHT22;10617;52.032;5.298;2024-03-17T07:24:48;7.80;99.90
20915;DHT22;10617;52.032;5.298;2024-03-17T07:28:51;7.90;99.90
20915;DHT22;10617;52.032;5.298;2024-03-17T07:32:51;8.00;99.90
20915;DHT22;10617;52.032;5.298;2024-03-17T07:36:52;8.00;99.90
20915;DHT22;10617;52.032;5.298;2024-03-17T07:41:00;8.10;99.90
20915;DHT22;10617;52.032;5.298;2024-03-17T07:45:01;8.20;99.90
20915;DHT22;10617;52.032;5.298;2024-03-17T07:49:02;8.40;99.90
20915;DHT22;10617;52.032;5.298;2024-03-17T07:53:03;8.50;99.90
20915;DHT22;10617;52.032;5.298;2024-03-17T07:57:04;8.60;99.90
20915;DHT22;10617;52.032;5.298;2024-03-17T08:01:07;8.80;99.90
20915;DHT22;10617;52.032;5.298;2024-03-17T08:05:08;8.90;99.90
20915;DHT22;10617;52.032;5.298;2024-03-17T08:09:09;8.90;99.90
20915;DHT22;10617;52.032;5.298;2024-03-17T08:13:10;9.00;99.90
20915;DHT22;10617;52.032;5.298;2024-03-17T08:17:11;9.00;99.90
20915;DHT22;10617;52.032;5.298;2024-03-17T08:21:12;9.00;99.90
20915;DHT22;10617;52.032;5.298;2024-03-17T08:25:12;9.00;99.90
20915;DHT22;10617;52.032;5.298;2024-03-17T08:29:14;9.00;99.90
20915;DHT22;10617;52.032;5.298;2024-03-17T08:33:14;9.10;99.90
20915;DHT22;10617;52.032;5.298;2024-03-17T08:37:15;9.10;99.90
20915;DHT22;10617;52.032;5.298;2024-03-17T08:41:17;9.20;99.90
20915;DHT22;10617;52.032;5.298;2024-03-17T08:45:17;9.20;99.90
20915;DHT22;10617;52.032;5.298;2024-03-17T08:49:19;9.30;99.90
20915;DHT22;10617;52.032;5.298;2024-03-17T08:53:21;9.30;99.90
20915;DHT22;10617;52.032;5.298;2024-03-17T08:57:22;9.40;99.90
20915;DHT22;10617;52.032;5.298;2024-03-17T09:01:23;9.40;99.90
20915;DHT22;10617;52.032;5.298;2024-03-17T09:05:24;9.40;99.90
20915;DHT22;10617;52.032;5.298;2024-03-17T09:09:25;9.50;99.90
20915;DHT22;10617;52.032;5.298;2024-03-17T09:13:26;9.60;99.90
20915;DHT22;10617;52.032;5.298;2024-03-17T09:17:28;9.70;99.90
20915;DHT22;10617;52.032;5.298;2024-03-17T09:21:29;9.80;99.90
20915;DHT22;10617;52.032;5.298;2024-03-17T09:25:29;9.90;99.90
20915;DHT22;10617;52.032;5.298;2024-03-17T09:29:31;10.10;99.90
20915;DHT22;10617;52.032;5.298;2024-03-17T09:33:31;10.20;99.90
20915;DHT22;10617;52.032;5.298;2024-03-17T09:37:32;10.30;99.90
20915;DHT22;10617;52.032;5.298;2024-03-17T09:41:33;10.40;99.90
20915;DHT22;10617;52.032;5.298;2024-03-17T09:45:34;10.50;99.90
20915;DHT22;10617;52.032;5.298;2024-03-17T09:49:36;10.70;99.90
20915;DHT22;10617;52.032;5.298;2024-03-17T09:53:37;10.80;99.90
20915;DHT22;10617;52.032;5.298;2024-03-17T09:57:40;11.00;99.90
20915;DHT22;10617;52.032;5.298;2024-03-17T10:01:41;11.10;99.90
20915;DHT22;10617;52.032;5.298;2024-03-17T10:05:43;11.20;99.90
20915;DHT22;10617;52.032;5.298;2024-03-17T10:09:44;11.20;99.90
20915;DHT22;10617;52.032;5.298;2024-03-17T10:13:58;11.30;99.90
20915;DHT22;10617;52.032;5.298;2024-03-17T10:17:59;11.30;99.90
20915;DHT22;10617;52.032;5.298;2024-03-17T10:22:01;11.40;99.90
20915;DHT22;10617;52.032;5.298;2024-03-17T10:26:02;11.60;99.90
20915;DHT22;10617;52.032;5.298;2024-03-17T10:30:18;11.90;99.90
20915;DHT22;10617;52.032;5.298;2024-03-17T10:34:21;12.30;99.90
20915;DHT22;10617;52.032;5.298;2024-03-17T10:38:25;12.60;99.90
20915;DHT22;10617;52.032;5.298;2024-03-17T10:42:27;12.80;99.90
20915;DHT22;10617;52.032;5.298;2024-03-17T10:46:29;12.70;99.90
20915;DHT22;10617;52.032;5.298;2024-03-17T10:50:31;12.80;99.90
20915;DHT22;10617;52.032;5.298;2024-03-17T10:54:35;12.80;99.90
20915;DHT22;10617;52.032;5.298;2024-03-17T10:58:38;12.90;99.90
20915;DHT22;10617;52.032;5.298;2024-03-17T11:02:42;13.20;99.90
20915;DHT22;10617;52.032;5.298;2024-03-17T11:06:43;13.70;99.90
20915;DHT22;10617;52.032;5.298;2024-03-17T11:10:51;14.00;99.90
20915;DHT22;10617;52.032;5.298;2024-03-17T11:19:25;13.80;99.90
20915;DHT22;10617;52.032;5.298;2024-03-17T11:23:27;13.50;99.90
20915;DHT22;10617;52.032;5.298;2024-03-17T11:27:42;13.30;99.90
20915;DHT22;10617;52.032;5.298;2024-03-17T11:31:44;13.10;99.90
20915;DHT22;10617;52.032;5.298;2024-03-17T11:35:47;13.00;99.90
20915;DHT22;10617;52.032;5.298;2024-03-17T11:39:51;12.90;99.90
20915;DHT22;10617;52.032;5.298;2024-03-17T11:48:16;12.90;99.90
20915;DHT22;10617;52.032;5.298;2024-03-17T11:52:19;13.00;99.90
20915;DHT22;10617;52.032;5.298;2024-03-17T11:56:23;13.00;99.90
20915;DHT22;10617;52.032;5.298;2024-03-17T12:00:24;13.10;99.90
20915;DHT22;10617;52.032;5.298;2024-03-17T12:04:26;13.10;99.90
20915;DHT22;10617;52.032;5.298;2024-03-17T12:08:27;13.20;99.90
20915;DHT22;10617;52.032;5.298;2024-03-17T12:12:30;13.30;99.90
20915;DHT22;10617;52.032;5.298;2024-03-17T12:16:36;13.30;99.90
20915;DHT22;10617;52.032;5.298;2024-03-17T12:20:37;13.30;99.90
20915;DHT22;10617;52.032;5.298;2024-03-17T12:24:39;13.40;99.90
20915;DHT22;10617;52.032;5.298;2024-03-17T12:28:40;13.40;99.90
20915;DHT22;10617;52.032;5.298;2024-03-17T12:32:41;13.50;99.90
20915;DHT22;10617;52.032;5.298;2024-03-17T12:36:43;13.40;99.90
20915;DHT22;10617;52.032;5.298;2024-03-17T12:40:44;13.40;99.90
20915;DHT22;10617;52.032;5.298;2024-03-17T12:45:09;13.40;99.90
20915;DHT22;10617;52.032;5.298;2024-03-17T12:49:10;13.40;99.90
20915;DHT22;10617;52.032;5.298;2024-03-17T12:53:16;13.40;99.90
20915;DHT22;10617;52.032;5.298;2024-03-17T12:57:20;13.40;99.90
20915;DHT22;10617;52.032;5.298;2024-03-17T13:01:41;13.40;99.90
20915;DHT22;10617;52.032;5.298;2024-03-17T13:05:47;13.40;99.90
20915;DHT22;10617;52.032;5.298;2024-03-17T13:09:48;13.60;99.90
20915;DHT22;10617;52.032;5.298;2024-03-17T13:13:49;13.60;99.90
20915;DHT22;10617;52.032;5.298;2024-03-17T13:17:50;13.60;99.90
20915;DHT22;10617;52.032;5.298;2024-03-17T13:21:51;13.60;99.90
20915;DHT22;10617;52.032;5.298;2024-03-17T13:25:52;13.60;99.90
20915;DHT22;10617;52.032;5.298;2024-03-17T13:29:53;13.60;99.90
20915;DHT22;10617;52.032;5.298;2024-03-17T13:33:54;13.60;99.90
20915;DHT22;10617;52.032;5.298;2024-03-17T13:37:57;13.60;99.90
20915;DHT22;10617;52.032;5.298;2024-03-17T13:42:01;13.60;99.90
20915;DHT22;10617;52.032;5.298;2024-03-17T13:46:05;13.60;99.90
20915;DHT22;10617;52.032;5.298;2024-03-17T13:50:07;13.60;99.90
20915;DHT22;10617;52.032;5.298;2024-03-17T13:54:11;13.50;99.90
20915;DHT22;10617;52.032;5.298;2024-03-17T13:58:12;13.60;99.90
20915;DHT22;10617;52.032;5.298;2024-03-17T14:02:13;13.60;99.90
20915;DHT22;10617;52.032;5.298;2024-03-17T14:06:14;13.60;99.90
20915;DHT22;10617;52.032;5.298;2024-03-17T14:10:17;13.70;99.90
20915;DHT22;10617;52.032;5.298;2024-03-17T14:14:18;13.80;99.90
20915;DHT22;10617;52.032;5.298;2024-03-17T14:18:19;14.00;99.90
20915;DHT22;10617;52.032;5.298;2024-03-17T14:22:20;14.10;99.90
20915;DHT22;10617;52.032;5.298;2024-03-17T14:26:22;14.30;99.90
20915;DHT22;10617;52.032;5.298;2024-03-17T14:30:23;14.50;99.90
20915;DHT22;10617;52.032;5.298;2024-03-17T14:34:25;14.60;99.90
20915;DHT22;10617;52.032;5.298;2024-03-17T14:38:27;14.80;99.90
20915;DHT22;10617;52.032;5.298;2024-03-17T14:42:28;15.10;99.90
20915;DHT22;10617;52.032;5.298;2024-03-17T14:46:29;15.50;99.90
20915;DHT22;10617;52.032;5.298;2024-03-17T14:50:30;15.60;99.90
20915;DHT22;10617;52.032;5.298;2024-03-17T14:54:32;15.70;99.90
20915;DHT22;10617;52.032;5.298;2024-03-17T14:58:33;15.60;99.90
20915;DHT22;10617;52.032;5.298;2024-03-17T15:02:33;15.40;99.90
20915;DHT22;10617;52.032;5.298;2024-03-17T15:06:34;15.20;99.90
20915;DHT22;10617;52.032;5.298;2024-03-17T15:10:36;14.80;99.90
20915;DHT22;10617;52.032;5.298;2024-03-17T15:14:37;14.60;99.90
20915;DHT22;10617;52.032;5.298;2024-03-17T15:18:38;14.50;99.90
20915;DHT22;10617;52.032;5.298;2024-03-17T15:22:39;14.40;99.90
20915;DHT22;10617;52.032;5.298;2024-03-17T15:26:40;14.40;99.90
20915;DHT22;10617;52.032;5.298;2024-03-17T15:30:41;14.40;99.90
20915;DHT22;10617;52.032;5.298;2024-03-17T15:34:41;14.30;99.90
20915;DHT22;10617;52.032;5.298;2024-03-17T15:38:42;14.30;99.90
20915;DHT22;10617;52.032;5.298;2024-03-17T15:42:45;14.20;99.90
20915;DHT22;10617;52.032;5.298;2024-03-17T15:46:46;14.10;99.90
20915;DHT22;10617;52.032;5.298;2024-03-17T15:50:58;14.10;99.90
20915;DHT22;10617;52.032;5.298;2024-03-17T15:54:59;14.00;99.90
20915;DHT22;10617;52.032;5.298;2024-03-17T15:59:00;14.00;99.90
20915;DHT22;10617;52.032;5.298;2024-03-17T16:03:03;13.90;99.90
20915;DHT22;10617;52.032;5.298;2024-03-17T16:07:06;13.90;99.90
20915;DHT22;10617;52.032;5.298;2024-03-17T16:11:07;13.90;99.90
20915;DHT22;10617;52.032;5.298;2024-03-17T16:15:13;13.90;99.90
20915;DHT22;10617;52.032;5.298;2024-03-17T16:19:15;13.90;99.90
20915;DHT22;10617;52.032;5.298;2024-03-17T16:23:19;13.80;99.90
20915;DHT22;10617;52.032;5.298;2024-03-17T16:27:20;13.80;99.90
20915;DHT22;10617;52.032;5.298;2024-03-17T16:31:22;13.80;99.90
20915;DHT22;10617;52.032;5.298;2024-03-17T16:35:25;13.70;99.90
20915;DHT22;10617;52.032;5.298;2024-03-17T16:39:27;13.70;99.90
20915;DHT22;10617;52.032;5.298;2024-03-17T16:44:04;13.70;99.90
20915;DHT22;10617;52.032;5.298;2024-03-17T16:48:06;13.70;99.90
20915;DHT22;10617;52.032;5.298;2024-03-17T16:52:07;13.70;99.90
20915;DHT22;10617;52.032;5.298;2024-03-17T16:56:08;13.60;99.90
20915;DHT22;10617;52.032;5.298;2024-03-17T17:00:09;13.60;99.90
20915;DHT22;10617;52.032;5.298;2024-03-17T17:04:14;13.50;99.90
20915;DHT22;10617;52.032;5.298;2024-03-17T17:08:16;13.50;99.90
20915;DHT22;10617;52.032;5.298;2024-03-17T17:12:17;13.50;99.90
20915;DHT22;10617;52.032;5.298;2024-03-17T17:16:33;13.50;99.90
20915;DHT22;10617;52.032;5.298;2024-03-17T17:20:34;13.40;99.90
20915;DHT22;10617;52.032;5.298;2024-03-17T17:24:35;13.40;99.90
20915;DHT22;10617;52.032;5.298;2024-03-17T17:28:36;13.30;99.90
20915;DHT22;10617;52.032;5.298;2024-03-17T17:32:37;13.30;99.90
20915;DHT22;10617;52.032;5.298;2024-03-17T17:36:38;13.20;99.90
20915;DHT22;10617;52.032;5.298;2024-03-17T17:40:39;13.20;99.90
20915;DHT22;10617;52.032;5.298;2024-03-17T17:44:40;13.20;99.90
20915;DHT22;10617;52.032;5.298;2024-03-17T17:48:42;13.10;99.90
20915;DHT22;10617;52.032;5.298;2024-03-17T17:52:45;13.10;99.90
20915;DHT22;10617;52.032;5.298;2024-03-17T17:56:45;13.10;99.90
20915;DHT22;10617;52.032;5.298;2024-03-17T18:00:47;13.00;99.90
20915;DHT22;10617;52.032;5.298;2024-03-17T18:04:50;13.00;99.90
20915;DHT22;10617;52.032;5.298;2024-03-17T18:08:51;13.00;99.90
20915;DHT22;10617;52.032;5.298;2024-03-17T18:12:52;12.90;99.90
20915;DHT22;10617;52.032;5.298;2024-03-17T18:16:53;12.90;99.90
20915;DHT22;10617;52.032;5.298;2024-03-17T18:20:57;12.90;99.90
20915;DHT22;10617;52.032;5.298;2024-03-17T18:24:58;12.80;99.90
20915;DHT22;10617;52.032;5.298;2024-03-17T18:28:59;12.80;99.90
20915;DHT22;10617;52.032;5.298;2024-03-17T18:33:00;12.70;99.90
20915;DHT22;10617;52.032;5.298;2024-03-17T18:37:02;12.70;99.90
20915;DHT22;10617;52.032;5.298;2024-03-17T18:45:06;12.60;99.90
20915;DHT22;10617;52.032;5.298;2024-03-17T18:49:07;12.50;99.90
20915;DHT22;10617;52.032;5.298;2024-03-17T18:53:11;12.50;99.90
20915;DHT22;10617;52.032;5.298;2024-03-17T18:57:13;12.50;99.90
20915;DHT22;10617;52.032;5.298;2024-03-17T19:01:14;12.40;99.90
20915;DHT22;10617;52.032;5.298;2024-03-17T19:05:15;12.40;99.90
20915;DHT22;10617;52.032;5.298;2024-03-17T19:09:17;12.40;99.90
20915;DHT22;10617;52.032;5.298;2024-03-17T19:13:19;12.40;99.90
20915;DHT22;10617;52.032;5.298;2024-03-17T19:17:20;12.30;99.90
20915;DHT22;10617;52.032;5.298;2024-03-17T19:21:21;12.30;99.90
20915;DHT22;10617;52.032;5.298;2024-03-17T19:25:22;12.30;99.90
20915;DHT22;10617;52.032;5.298;2024-03-17T19:29:24;12.30;99.90
20915;DHT22;10617;52.032;5.298;2024-03-17T19:33:28;12.30;99.90
20915;DHT22;10617;52.032;5.298;2024-03-17T19:37:29;12.30;99.90
20915;DHT22;10617;52.032;5.298;2024-03-17T19:41:30;12.30;99.90
20915;DHT22;10617;52.032;5.298;2024-03-17T19:45:31;12.30;99.90
20915;DHT22;10617;52.032;5.298;2024-03-17T19:49:32;12.30;99.90
20915;DHT22;10617;52.032;5.298;2024-03-17T19:53:35;12.20;99.90
20915;DHT22;10617;52.032;5.298;2024-03-17T19:57:36;12.20;99.90
20915;DHT22;10617;52.032;5.298;2024-03-17T20:01:37;12.20;99.90
20915;DHT22;10617;52.032;5.298;2024-03-17T20:05:38;12.10;99.90
20915;DHT22;10617;52.032;5.298;2024-03-17T20:09:39;12.00;99.90
20915;DHT22;10617;52.032;5.298;2024-03-17T20:13:41;12.00;99.90
20915;DHT22;10617;52.032;5.298;2024-03-17T20:17:42;12.00;99.90
20915;DHT22;10617;52.032;5.298;2024-03-17T20:21:43;12.00;99.90
20915;DHT22;10617;52.032;5.298;2024-03-17T20:25:44;11.90;99.90
20915;DHT22;10617;52.032;5.298;2024-03-17T20:29:45;11.90;99.90
20915;DHT22;10617;52.032;5.298;2024-03-17T20:33:46;11.80;99.90
20915;DHT22;10617;52.032;5.298;2024-03-17T20:37:48;11.80;99.90
20915;DHT22;10617;52.032;5.298;2024-03-17T20:41:49;11.80;99.90
20915;DHT22;10617;52.032;5.298;2024-03-17T20:45:49;11.70;99.90
20915;DHT22;10617;52.032;5.298;2024-03-17T20:49:54;11.70;99.90
20915;DHT22;10617;52.032;5.298;2024-03-17T20:53:54;11.70;99.90
20915;DHT22;10617;52.032;5.298;2024-03-17T20:57:55;11.60;99.90
20915;DHT22;10617;52.032;5.298;2024-03-17T21:01:56;11.70;99.90
20915;DHT22;10617;52.032;5.298;2024-03-17T21:05:57;11.70;99.90
20915;DHT22;10617;52.032;5.298;2024-03-17T21:09:58;11.70;99.90
20915;DHT22;10617;52.032;5.298;2024-03-17T21:13:59;11.60;99.90
20915;DHT22;10617;52.032;5.298;2024-03-17T21:18:00;11.70;99.90
20915;DHT22;10617;52.032;5.298;2024-03-17T21:22:01;11.70;99.90
20915;DHT22;10617;52.032;5.298;2024-03-17T21:26:02;11.60;99.90
20915;DHT22;10617;52.032;5.298;2024-03-17T21:30:04;11.50;99.90
20915;DHT22;10617;52.032;5.298;2024-03-17T21:34:06;11.50;99.90
20915;DHT22;10617;52.032;5.298;2024-03-17T21:38:07;11.50;99.90
20915;DHT22;10617;52.032;5.298;2024-03-17T21:42:08;11.50;99.90
20915;DHT22;10617;52.032;5.298;2024-03-17T21:46:09;11.50;99.90
20915;DHT22;10617;52.032;5.298;2024-03-17T21:50:10;11.60;99.90
20915;DHT22;10617;52.032;5.298;2024-03-17T21:54:11;11.50;99.90
20915;DHT22;10617;52.032;5.298;2024-03-17T21:58:12;11.50;99.90
20915;DHT22;10617;52.032;5.298;2024-03-17T22:02:13;11.50;99.90
20915;DHT22;10617;52.032;5.298;2024-03-17T22:06:14;11.50;99.90
20915;DHT22;10617;52.032;5.298;2024-03-17T22:10:15;11.50;99.90
20915;DHT22;10617;52.032;5.298;2024-03-17T22:14:16;11.50;99.90
20915;DHT22;10617;52.032;5.298;2024-03-17T22:18:17;11.50;99.90
20915;DHT22;10617;52.032;5.298;2024-03-17T22:22:18;11.50;99.90
20915;DHT22;10617;52.032;5.298;2024-03-17T22:26:19;11.50;99.90
20915;DHT22;10617;52.032;5.298;2024-03-17T22:30:20;11.50;99.90
20915;DHT22;10617;52.032;5.298;2024-03-17T22:34:21;11.50;99.90
20915;DHT22;10617;52.032;5.298;2024-03-17T22:38:22;11.50;99.90
20915;DHT22;10617;52.032;5.298;2024-03-17T22:42:23;11.50;99.90
20915;DHT22;10617;52.032;5.298;2024-03-17T22:46:24;11.50;99.90
20915;DHT22;10617;52.032;5.298;2024-03-17T22:50:25;11.50;99.90
20915;DHT22;10617;52.032;5.298;2024-03-17T22:54:26;11.60;99.90
20915;DHT22;10617;52.032;5.298;2024-03-17T22:58:27;11.60;99.90
20915;DHT22;10617;52.032;5.298;2024-03-17T23:02:28;11.60;99.90
20915;DHT22;10617;52.032;5.298;2024-03-17T23:06:29;11.60;99.90
20915;DHT22;10617;52.032;5.298;2024-03-17T23:10:31;11.60;99.90
20915;DHT22;10617;52.032;5.298;2024-03-17T23:14:32;11.60;99.90
20915;DHT22;10617;52.032;5.298;2024-03-17T23:18:33;11.60;99.90
20915;DHT22;10617;52.032;5.298;2024-03-17T23:22:37;11.70;99.90
20915;DHT22;10617;52.032;5.298;2024-03-17T23:26:38;11.60;99.90
20915;DHT22;10617;52.032;5.298;2024-03-17T23:30:39;11.60;99.90
20915;DHT22;10617;52.032;5.298;2024-03-17T23:35:17;11.70;99.90
20915;DHT22;10617;52.032;5.298;2024-03-17T23:39:19;11.70;99.90
20915;DHT22;10617;52.032;5.298;2024-03-17T23:43:20;11.70;99.90
20915;DHT22;10617;52.032;5.298;2024-03-17T23:47:21;11.70;99.90
20915;DHT22;10617;52.032;5.298;2024-03-17T23:51:22;11.70;99.90
20915;DHT22;10617;52.032;5.298;2024-03-17T23:55:23;11.70;99.90
20915;DHT22;10617;52.032;5.298;2024-03-17T23:59:24;11.70;99.90
